Time;durP1;ratioP1;P1;durP2;ratioP2;P2;SDS_P1;SDS_P2;PMS_P1;PMS_P2;Temp;Humidity;BMP_temperature;BMP_pressure;BME280_temperature;BME280_humidity;BME280_pressure;Samples;Min_cycle;Max_cycle;Signal;HPM_P1;HPM_P2
2021/12/24 00:00:28;;;;;;;23.57;3.70;;;;;;;;;;5074396;28;20497;-67
2021/12/24 00:02:56;;;;;;;14.03;3.50;;;;;;;;;;5074291;28;20418;-67
2021/12/24 00:05:22;;;;;;;7.77;3.80;;;;;;;;;;5074626;28;20922;-67
2021/12/24 00:07:48;;;;;;;14.20;4.87;;;;;;;;;;5074292;28;20399;-67
2021/12/24 00:10:14;;;;;;;23.03;6.00;;;;;;;;;;5073439;28;20422;-67
2021/12/24 00:12:46;;;;;;;14.27;4.77;;;;;;;;;;5074281;28;20427;-67
2021/12/24 00:15:33;;;;;;;6.50;2.80;;;;;;;;;;5074271;28;20468;-67
2021/12/24 00:18:08;;;;;;;33.20;5.00;;;;;;;;;;5075130;28;20516;-67
2021/12/24 00:36:39;;;;;;;20.50;4.77;;;;;;;;;;5075200;28;20398;-67
2021/12/24 00:39:05;;;;;;;9.03;3.93;;;;;;;;;;5073711;28;20468;-68
2021/12/24 00:41:31;;;;;;;4.97;2.10;;;;;;;;;;5073453;28;20494;-68
2021/12/24 00:43:58;;;;;;;5.63;1.70;;;;;;;;;;5074837;28;20445;-68
2021/12/24 00:46:24;;;;;;;7.73;3.77;;;;;;;;;;5073786;28;20434;-68
2021/12/24 00:48:51;;;;;;;8.90;2.57;;;;;;;;;;5073293;28;20457;-68
2021/12/24 00:51:22;;;;;;;12.67;3.17;;;;;;;;;;5073263;28;20416;-68
2021/12/24 00:56:15;;;;;;;11.37;3.87;;;;;;;;;;5074556;28;20407;-67
2021/12/24 00:58:42;;;;;;;11.53;3.70;;;;;;;;;;5073451;28;20438;-68
2021/12/24 01:01:09;;;;;;;6.30;2.53;;;;;;;;;;5072718;28;20454;-68
2021/12/24 01:03:35;;;;;;;11.67;3.70;;;;;;;;;;5072963;28;20517;-67
2021/12/24 01:06:02;;;;;;;3.90;2.00;;;;;;;;;;5073238;28;20808;-67
2021/12/24 01:08:28;;;;;;;5.20;1.60;;;;;;;;;;5074655;28;20398;-67
2021/12/24 01:10:56;;;;;;;4.10;1.70;;;;;;;;;;5072281;28;20403;-67
2021/12/24 01:13:22;;;;;;;3.27;1.63;;;;;;;;;;5072704;28;20485;-67
2021/12/24 01:16:00;;;;;;;4.03;1.90;;;;;;;;;;5073160;28;20410;-67
2021/12/24 01:18:51;;;;;;;3.97;2.17;;;;;;;;;;5072525;28;20495;-67
2021/12/24 01:21:42;;;;;;;5.43;1.63;;;;;;;;;;5072462;28;20879;-68
2021/12/24 01:24:10;;;;;;;5.83;1.70;;;;;;;;;;5072250;28;20431;-67
2021/12/24 01:27:01;;;;;;;7.80;2.10;;;;;;;;;;5072763;28;20438;-68
2021/12/24 01:42:48;;;;;;;5.80;2.50;;;;;;;;;;5073913;28;20414;-67
2021/12/24 01:45:15;;;;;;;4.80;1.67;;;;;;;;;;5072480;28;20399;-68
2021/12/24 01:47:41;;;;;;;3.77;1.67;;;;;;;;;;5072013;28;20407;-67
2021/12/24 01:50:07;;;;;;;4.03;2.50;;;;;;;;;;5072015;28;20407;-67
2021/12/24 01:52:33;;;;;;;9.30;3.70;;;;;;;;;;5072386;28;20437;-68
2021/12/24 01:54:59;;;;;;;3.10;2.30;;;;;;;;;;5072224;28;20403;-67
2021/12/24 01:57:25;;;;;;;2.20;1.30;;;;;;;;;;5072451;28;20415;-67
2021/12/24 01:59:52;;;;;;;3.03;2.20;;;;;;;;;;5071822;28;20458;-66
2021/12/24 02:02:18;;;;;;;20.07;2.80;;;;;;;;;;5071985;28;20403;-66
2021/12/24 02:04:44;;;;;;;7.17;2.20;;;;;;;;;;5072367;28;20409;-67
2021/12/24 02:07:10;;;;;;;9.67;2.00;;;;;;;;;;5071752;28;20786;-67
2021/12/24 02:09:36;;;;;;;6.90;2.30;;;;;;;;;;5072055;28;20490;-67
2021/12/24 02:12:06;;;;;;;7.53;1.97;;;;;;;;;;5071459;28;20417;-67
2021/12/24 02:14:36;;;;;;;2.60;1.57;;;;;;;;;;5072106;28;20967;-67
2021/12/24 02:30:28;;;;;;;2.40;1.40;;;;;;;;;;5073239;28;20397;-66
2021/12/24 02:32:54;;;;;;;2.97;1.90;;;;;;;;;;5071762;28;20484;-67
2021/12/24 02:35:20;;;;;;;3.03;1.50;;;;;;;;;;5071902;28;20402;-67
2021/12/24 02:37:46;;;;;;;3.77;0.83;;;;;;;;;;5071701;28;20471;-67
2021/12/24 02:40:12;;;;;;;2.90;1.40;;;;;;;;;;5071354;28;20977;-68
2021/12/24 02:42:38;;;;;;;3.10;1.00;;;;;;;;;;5071814;28;20423;-67
2021/12/24 02:45:05;;;;;;;3.63;1.87;;;;;;;;;;5071957;28;20410;-68
2021/12/24 02:47:55;;;;;;;2.10;1.40;;;;;;;;;;5071686;28;20415;-68
2021/12/24 02:55:33;;;;;;;3.70;1.50;;;;;;;;;;5073387;28;20460;-67
2021/12/24 02:57:59;;;;;;;2.00;1.30;;;;;;;;;;5071792;28;20402;-67
2021/12/24 03:00:27;;;;;;;6.13;1.37;;;;;;;;;;5071053;28;20629;-66
2021/12/24 03:02:53;;;;;;;1.63;1.00;;;;;;;;;;5071232;28;20488;-67
2021/12/24 03:05:21;;;;;;;2.63;0.73;;;;;;;;;;5071743;28;20415;-67
2021/12/24 03:07:47;;;;;;;4.90;1.73;;;;;;;;;;5071473;28;20407;-68
2021/12/24 03:10:16;;;;;;;1.93;1.20;;;;;;;;;;5072624;28;20414;-66
2021/12/24 03:12:44;;;;;;;5.57;1.60;;;;;;;;;;5071333;28;20427;-67
2021/12/24 03:15:11;;;;;;;4.10;1.90;;;;;;;;;;5071228;28;20433;-66
2021/12/24 03:17:37;;;;;;;3.40;1.80;;;;;;;;;;5071552;28;20406;-67
2021/12/24 03:20:08;;;;;;;7.33;1.80;;;;;;;;;;5074878;28;20450;-66
2021/12/24 03:25:20;;;;;;;1.80;1.17;;;;;;;;;;5076544;28;20393;-66
2021/12/24 03:27:46;;;;;;;3.00;1.37;;;;;;;;;;5075289;28;20411;-67
2021/12/24 03:30:13;;;;;;;3.17;1.70;;;;;;;;;;5074664;28;20403;-66
2021/12/24 03:32:39;;;;;;;1.43;1.00;;;;;;;;;;5074950;28;20434;-67
2021/12/24 03:35:05;;;;;;;21.03;1.90;;;;;;;;;;5075140;28;20414;-68
2021/12/24 03:37:31;;;;;;;8.93;1.90;;;;;;;;;;5074671;28;20415;-67
2021/12/24 03:39:57;;;;;;;17.77;1.43;;;;;;;;;;5074630;28;20465;-68
2021/12/24 03:42:24;;;;;;;8.63;1.80;;;;;;;;;;5074876;28;20415;-67
2021/12/24 03:44:57;;;;;;;7.33;1.23;;;;;;;;;;5074796;28;20402;-67
2021/12/24 03:47:25;;;;;;;8.77;1.50;;;;;;;;;;5074922;28;20434;-67
2021/12/24 03:50:03;;;;;;;4.60;1.17;;;;;;;;;;5074095;28;20437;-67
2021/12/24 03:54:57;;;;;;;5.43;1.53;;;;;;;;;;5076033;28;20747;-67
2021/12/24 03:57:34;;;;;;;3.30;1.27;;;;;;;;;;5074628;28;20415;-66
2021/12/24 04:00:06;;;;;;;17.90;1.80;;;;;;;;;;5073991;28;20549;-67
2021/12/24 04:02:32;;;;;;;4.80;1.53;;;;;;;;;;5075470;28;20440;-67
2021/12/24 04:04:58;;;;;;;1.57;1.00;;;;;;;;;;5074617;28;20453;-68
2021/12/24 04:07:24;;;;;;;2.70;1.10;;;;;;;;;;5074518;28;20410;-67
2021/12/24 04:10:01;;;;;;;4.17;1.07;;;;;;;;;;5074171;28;20418;-67
2021/12/24 04:12:27;;;;;;;1.47;0.80;;;;;;;;;;5074457;28;20463;-67
2021/12/24 04:14:54;;;;;;;2.40;0.93;;;;;;;;;;5074039;28;20411;-66
2021/12/24 04:17:21;;;;;;;3.17;1.70;;;;;;;;;;5074341;28;20510;-68
2021/12/24 04:25:18;;;;;;;1.60;1.10;;;;;;;;;;5075993;28;20436;-67
2021/12/24 04:27:44;;;;;;;3.30;1.13;;;;;;;;;;5073700;28;20414;-67
2021/12/24 04:30:14;;;;;;;1.57;0.93;;;;;;;;;;5073114;28;20445;-67
2021/12/24 04:33:06;;;;;;;3.40;1.43;;;;;;;;;;5073970;28;20461;-67
2021/12/24 04:38:45;;;;;;;1.40;1.03;;;;;;;;;;5074994;28;20423;-67
2021/12/24 04:51:46;;;;;;;10.93;1.67;;;;;;;;;;5074359;28;20418;-68
2021/12/24 05:02:50;;;;;;;9.43;1.30;;;;;;;;;;5074941;28;20948;-67
2021/12/24 05:05:23;;;;;;;3.67;1.30;;;;;;;;;;5073216;28;20411;-66
2021/12/24 05:10:16;;;;;;;1.40;1.07;;;;;;;;;;5074149;28;20410;-68
2021/12/24 05:12:42;;;;;;;2.17;1.20;;;;;;;;;;5073000;28;20418;-66
2021/12/24 05:15:10;;;;;;;28.73;2.23;;;;;;;;;;5072598;28;20494;-67
2021/12/24 05:22:59;;;;;;;3.83;1.27;;;;;;;;;;5074225;28;20413;-67
2021/12/24 05:25:25;;;;;;;4.23;1.07;;;;;;;;;;5073047;28;20401;-66
2021/12/24 05:27:52;;;;;;;4.57;1.40;;;;;;;;;;5072494;28;20419;-67
2021/12/24 05:30:18;;;;;;;2.90;0.90;;;;;;;;;;5072260;28;20413;-67
2021/12/24 05:32:44;;;;;;;6.33;1.30;;;;;;;;;;5072542;28;20423;-67
2021/12/24 05:35:10;;;;;;;8.53;1.30;;;;;;;;;;5072704;28;20488;-67
2021/12/24 05:37:36;;;;;;;8.53;1.30;;;;;;;;;;5072667;28;20821;-66
2021/12/24 05:40:03;;;;;;;9.87;1.67;;;;;;;;;;5071485;28;20470;-66
2021/12/24 05:42:31;;;;;;;4.90;1.10;;;;;;;;;;5072066;28;20772;-67
2021/12/24 05:45:03;;;;;;;4.53;1.13;;;;;;;;;;5072428;28;20506;-67
2021/12/24 05:47:29;;;;;;;5.63;1.23;;;;;;;;;;5072630;28;20403;-66
2021/12/24 05:49:56;;;;;;;3.27;0.93;;;;;;;;;;5072112;28;20487;-67
2021/12/24 05:52:22;;;;;;;6.60;1.33;;;;;;;;;;5071867;28;20968;-66
2021/12/24 05:54:48;;;;;;;1.63;0.90;;;;;;;;;;5072518;28;20407;-66
2021/12/24 05:57:14;;;;;;;5.90;1.30;;;;;;;;;;5072405;28;20418;-67
2021/12/24 05:59:40;;;;;;;9.93;1.30;;;;;;;;;;5072181;28;20457;-66
2021/12/24 06:02:07;;;;;;;3.50;1.07;;;;;;;;;;5071935;28;20895;-66
2021/12/24 06:04:33;;;;;;;1.87;0.80;;;;;;;;;;5071918;28;20426;-67
2021/12/24 06:06:59;;;;;;;5.50;1.30;;;;;;;;;;5072059;28;20414;-67
2021/12/24 06:09:25;;;;;;;2.20;0.97;;;;;;;;;;5072385;28;20427;-67
2021/12/24 06:11:51;;;;;;;4.37;1.40;;;;;;;;;;5071958;28;20413;-67
2021/12/24 06:14:17;;;;;;;4.83;1.17;;;;;;;;;;5071815;28;20477;-68
2021/12/24 06:16:50;;;;;;;1.93;1.07;;;;;;;;;;5073245;28;20460;-67
2021/12/24 06:19:16;;;;;;;10.77;1.20;;;;;;;;;;5071928;28;20427;-67
2021/12/24 06:21:43;;;;;;;1.73;1.03;;;;;;;;;;5071545;28;20410;-67
2021/12/24 06:24:10;;;;;;;3.83;1.20;;;;;;;;;;5071842;28;20803;-68
2021/12/24 06:26:36;;;;;;;21.03;1.63;;;;;;;;;;5071793;28;20407;-65
2021/12/24 06:29:02;;;;;;;2.00;1.27;;;;;;;;;;5070990;28;20931;-65
2021/12/24 06:31:28;;;;;;;2.23;1.30;;;;;;;;;;5071389;28;20414;-65
2021/12/24 06:33:54;;;;;;;14.17;1.87;;;;;;;;;;5071497;28;20919;-65
2021/12/24 06:36:20;;;;;;;5.33;2.00;;;;;;;;;;5071883;28;20516;-65
2021/12/24 06:38:46;;;;;;;4.63;1.97;;;;;;;;;;5071907;28;20427;-63
2021/12/24 06:41:12;;;;;;;1.87;1.13;;;;;;;;;;5071217;28;20966;-63
2021/12/24 06:43:38;;;;;;;2.87;1.37;;;;;;;;;;5071645;28;20430;-63
2021/12/24 06:46:11;;;;;;;4.80;1.40;;;;;;;;;;5071926;28;20407;-63
2021/12/24 06:48:37;;;;;;;3.33;1.43;;;;;;;;;;5071853;28;20428;-64
2021/12/24 06:51:03;;;;;;;10.03;1.40;;;;;;;;;;5071219;28;20902;-63
2021/12/24 06:53:29;;;;;;;1.83;1.10;;;;;;;;;;5074735;28;20418;-63
2021/12/24 06:55:55;;;;;;;12.47;1.70;;;;;;;;;;5075793;28;20505;-64
2021/12/24 06:58:21;;;;;;;3.63;1.37;;;;;;;;;;5075738;28;20460;-64
2021/12/24 07:00:47;;;;;;;6.60;1.70;;;;;;;;;;5075407;28;20454;-63
2021/12/24 07:03:13;;;;;;;2.13;1.07;;;;;;;;;;5075675;28;20899;-64
2021/12/24 07:05:39;;;;;;;2.07;1.10;;;;;;;;;;5075225;28;20407;-64
2021/12/24 07:08:05;;;;;;;1.97;1.10;;;;;;;;;;5075528;28;20404;-64
2021/12/24 07:10:31;;;;;;;26.70;1.80;;;;;;;;;;5075096;28;20411;-64
2021/12/24 07:12:58;;;;;;;1.97;1.07;;;;;;;;;;5075238;28;20931;-64
2021/12/24 07:15:24;;;;;;;2.77;1.20;;;;;;;;;;5075641;28;20431;-64
2021/12/24 07:17:50;;;;;;;2.97;1.37;;;;;;;;;;5074945;28;20394;-63
2021/12/24 07:20:16;;;;;;;3.60;2.13;;;;;;;;;;5074682;28;20961;-64
2021/12/24 07:22:42;;;;;;;4.83;1.33;;;;;;;;;;5075203;28;20567;-64
2021/12/24 07:25:08;;;;;;;2.10;1.10;;;;;;;;;;5075200;28;20422;-64
2021/12/24 07:27:35;;;;;;;4.60;1.73;;;;;;;;;;5075076;28;20410;-64
2021/12/24 07:30:01;;;;;;;2.63;1.30;;;;;;;;;;5074174;28;20438;-64
2021/12/24 07:32:27;;;;;;;8.27;2.73;;;;;;;;;;5075082;28;20544;-64
2021/12/24 07:34:53;;;;;;;8.00;1.83;;;;;;;;;;5074908;28;20414;-64
2021/12/24 07:37:19;;;;;;;2.77;1.13;;;;;;;;;;5074487;28;20498;-64
2021/12/24 07:39:45;;;;;;;1.47;1.10;;;;;;;;;;5073510;28;20549;-63
2021/12/24 07:42:11;;;;;;;2.37;1.50;;;;;;;;;;5073205;28;20446;-64
2021/12/24 07:44:37;;;;;;;6.97;1.60;;;;;;;;;;5074294;28;20495;-64
2021/12/24 07:47:06;;;;;;;4.00;1.33;;;;;;;;;;5074380;28;20433;-64
2021/12/24 07:49:39;;;;;;;2.33;1.30;;;;;;;;;;5074762;28;20434;-64
2021/12/24 07:54:34;;;;;;;8.83;1.60;;;;;;;;;;5075746;28;20935;-64
2021/12/24 07:57:01;;;;;;;2.23;1.50;;;;;;;;;;5073445;28;20427;-64
2021/12/24 07:59:29;;;;;;;9.23;1.33;;;;;;;;;;5075590;28;20821;-64
2021/12/24 08:01:56;;;;;;;2.63;1.33;;;;;;;;;;5086449;28;20418;-64
2021/12/24 08:04:22;;;;;;;2.93;0.97;;;;;;;;;;5093554;28;20434;-63
2021/12/24 08:06:48;;;;;;;2.90;1.30;;;;;;;;;;5074336;28;20415;-64
2021/12/24 08:09:14;;;;;;;1.70;1.20;;;;;;;;;;5079645;28;20421;-64
2021/12/24 08:11:40;;;;;;;9.23;1.10;;;;;;;;;;5078127;28;20419;-63
2021/12/24 08:14:07;;;;;;;5.13;1.27;;;;;;;;;;5074138;28;20963;-64
2021/12/24 08:16:34;;;;;;;3.90;1.60;;;;;;;;;;5076334;28;20419;-64
2021/12/24 08:19:00;;;;;;;2.37;1.33;;;;;;;;;;5079711;28;20518;-64
2021/12/24 08:21:27;;;;;;;5.80;1.33;;;;;;;;;;5062500;28;20457;-68
2021/12/24 08:23:53;;;;;;;2.73;1.50;;;;;;;;;;5073564;28;20452;-68
2021/12/24 08:26:21;;;;;;;1.93;1.30;;;;;;;;;;5077145;28;20501;-68
2021/12/24 08:28:47;;;;;;;2.37;1.23;;;;;;;;;;5074291;28;20553;-68
2021/12/24 08:31:13;;;;;;;1.90;1.07;;;;;;;;;;5073225;28;20433;-68
2021/12/24 08:33:39;;;;;;;3.10;1.70;;;;;;;;;;5073785;28;20515;-68
2021/12/24 08:36:07;;;;;;;3.60;1.47;;;;;;;;;;5073888;28;20887;-68
2021/12/24 08:38:33;;;;;;;5.53;1.50;;;;;;;;;;5073975;28;20399;-64
2021/12/24 08:40:59;;;;;;;3.67;1.60;;;;;;;;;;5072961;28;20455;-64
2021/12/24 08:43:25;;;;;;;5.80;2.20;;;;;;;;;;5073454;28;20426;-64
2021/12/24 08:45:51;;;;;;;4.13;1.50;;;;;;;;;;5073774;28;20403;-64
2021/12/24 08:48:17;;;;;;;4.00;1.33;;;;;;;;;;5073375;28;20429;-64
2021/12/24 08:50:44;;;;;;;5.70;2.20;;;;;;;;;;5073432;28;20391;-63
2021/12/24 08:53:11;;;;;;;3.77;1.93;;;;;;;;;;5073514;28;20435;-64
2021/12/24 08:55:37;;;;;;;1.87;1.27;;;;;;;;;;5073102;28;20411;-64
2021/12/24 08:58:03;;;;;;;5.17;2.23;;;;;;;;;;5073557;28;20413;-64
2021/12/24 09:00:30;;;;;;;3.13;1.40;;;;;;;;;;5071138;28;20497;-63
2021/12/24 09:02:56;;;;;;;4.30;1.93;;;;;;;;;;5074022;28;20517;-64
2021/12/24 09:05:22;;;;;;;2.40;1.50;;;;;;;;;;5072737;28;20410;-63
2021/12/24 09:07:48;;;;;;;2.57;1.37;;;;;;;;;;5072306;28;20422;-64
2021/12/24 09:10:15;;;;;;;5.33;1.77;;;;;;;;;;5074045;28;20391;-64
2021/12/24 09:12:43;;;;;;;6.83;2.40;;;;;;;;;;5071644;28;20434;-64
2021/12/24 09:15:09;;;;;;;4.77;1.90;;;;;;;;;;5072536;28;20422;-64
2021/12/24 09:17:43;;;;;;;3.73;2.03;;;;;;;;;;5072995;28;20479;-64
2021/12/24 09:20:12;;;;;;;4.07;2.37;;;;;;;;;;5072761;28;20547;-64
2021/12/24 09:22:39;;;;;;;4.40;2.30;;;;;;;;;;5070737;28;20512;-64
2021/12/24 09:25:06;;;;;;;4.77;2.00;;;;;;;;;;5069487;28;20480;-64
2021/12/24 09:27:32;;;;;;;6.30;1.83;;;;;;;;;;5069356;28;20403;-65
2021/12/24 09:29:58;;;;;;;4.00;1.90;;;;;;;;;;5071689;28;20921;-65
2021/12/24 09:32:25;;;;;;;7.37;2.23;;;;;;;;;;5070172;28;20561;-65
2021/12/24 09:34:51;;;;;;;8.70;2.47;;;;;;;;;;5070963;28;20410;-65
2021/12/24 09:37:17;;;;;;;5.80;2.07;;;;;;;;;;5070831;28;20410;-64
2021/12/24 09:39:43;;;;;;;12.53;3.03;;;;;;;;;;5071222;28;20457;-65
2021/12/24 09:42:09;;;;;;;11.70;2.77;;;;;;;;;;5070194;28;20403;-66
2021/12/24 09:44:36;;;;;;;5.97;2.23;;;;;;;;;;5072178;28;20879;-65
2021/12/24 09:47:02;;;;;;;12.93;3.60;;;;;;;;;;5072513;28;20406;-65
2021/12/24 09:49:28;;;;;;;5.67;2.70;;;;;;;;;;5072368;28;20409;-65
2021/12/24 09:51:54;;;;;;;6.90;2.50;;;;;;;;;;5071966;28;20407;-66
2021/12/24 09:54:22;;;;;;;10.93;4.23;;;;;;;;;;5072227;28;20423;-65
2021/12/24 09:56:48;;;;;;;7.43;3.00;;;;;;;;;;5071821;28;20434;-66
2021/12/24 09:59:16;;;;;;;6.57;3.20;;;;;;;;;;5072398;28;20399;-66
2021/12/24 10:01:44;;;;;;;12.50;4.10;;;;;;;;;;5072823;28;20414;-65
2021/12/24 10:04:16;;;;;;;13.53;4.70;;;;;;;;;;5072107;28;20433;-65
2021/12/24 10:06:52;;;;;;;7.70;2.67;;;;;;;;;;5072230;28;20403;-65
2021/12/24 10:09:20;;;;;;;6.87;2.67;;;;;;;;;;5071953;28;20751;-65
2021/12/24 10:11:51;;;;;;;9.83;4.63;;;;;;;;;;5070414;28;20403;-66
2021/12/24 10:14:18;;;;;;;9.70;3.67;;;;;;;;;;5072154;28;20426;-65
2021/12/24 10:16:45;;;;;;;13.00;4.83;;;;;;;;;;5072214;28;20414;-66
2021/12/24 10:19:13;;;;;;;10.03;2.17;;;;;;;;;;5070823;28;20426;-65
2021/12/24 10:21:40;;;;;;;11.90;3.13;;;;;;;;;;5071282;28;20467;-65
2021/12/24 10:24:09;;;;;;;18.77;6.07;;;;;;;;;;5071883;28;20527;-66
2021/12/24 10:26:54;;;;;;;13.73;3.60;;;;;;;;;;5071652;28;20411;-66
2021/12/24 10:29:21;;;;;;;7.43;3.50;;;;;;;;;;5072046;28;20403;-66
2021/12/24 10:31:53;;;;;;;14.57;5.07;;;;;;;;;;5071631;28;20437;-66
2021/12/24 10:34:20;;;;;;;7.97;3.80;;;;;;;;;;5071460;28;20432;-66
2021/12/24 10:36:50;;;;;;;6.00;2.40;;;;;;;;;;5071960;28;20888;-66
2021/12/24 10:39:17;;;;;;;8.37;3.70;;;;;;;;;;5071769;28;20407;-65
2021/12/24 10:41:44;;;;;;;13.80;4.67;;;;;;;;;;5071506;28;20457;-66
2021/12/24 10:44:17;;;;;;;15.17;4.50;;;;;;;;;;5071812;28;20430;-66
2021/12/24 10:46:58;;;;;;;9.77;3.50;;;;;;;;;;5071199;28;20902;-66
2021/12/24 10:49:38;;;;;;;15.27;4.27;;;;;;;;;;5071696;28;20921;-66
2021/12/24 10:54:53;;;;;;;13.67;4.27;;;;;;;;;;5072856;28;20395;-66
2021/12/24 10:57:20;;;;;;;7.80;2.70;;;;;;;;;;5071446;28;20442;-65
2021/12/24 10:59:51;;;;;;;15.73;3.63;;;;;;;;;;5071712;28;20454;-66
2021/12/24 11:02:17;;;;;;;14.77;4.73;;;;;;;;;;5071295;28;20764;-66
2021/12/24 11:04:43;;;;;;;11.00;3.70;;;;;;;;;;5071562;28;20414;-65
2021/12/24 11:07:28;;;;;;;5.57;2.60;;;;;;;;;;5072899;28;20403;-65
2021/12/24 11:10:12;;;;;;;21.13;6.53;;;;;;;;;;5070683;28;20498;-65
2021/12/24 11:12:48;;;;;;;9.03;3.57;;;;;;;;;;5071523;28;20774;-66
2021/12/24 11:15:28;;;;;;;11.17;3.80;;;;;;;;;;5071563;28;20486;-65
2021/12/24 11:18:06;;;;;;;17.73;5.97;;;;;;;;;;5071429;28;20932;-65
2021/12/24 11:20:32;;;;;;;5.30;2.53;;;;;;;;;;5070824;28;20540;-66
2021/12/24 11:23:09;;;;;;;11.23;4.40;;;;;;;;;;5070956;28;20429;-66
2021/12/24 11:25:37;;;;;;;7.20;3.30;;;;;;;;;;5071552;28;20453;-65
2021/12/24 11:28:04;;;;;;;10.20;4.10;;;;;;;;;;5071340;28;20407;-65
2021/12/24 11:30:31;;;;;;;9.77;3.50;;;;;;;;;;5071111;28;20498;-66
2021/12/24 11:32:57;;;;;;;8.97;3.60;;;;;;;;;;5070992;28;20454;-65
2021/12/24 11:35:24;;;;;;;6.50;3.37;;;;;;;;;;5070951;28;20419;-65
2021/12/24 11:37:52;;;;;;;7.97;3.30;;;;;;;;;;5071285;28;20407;-65
2021/12/24 11:40:18;;;;;;;12.13;3.97;;;;;;;;;;5073248;28;20458;-65
2021/12/24 11:42:54;;;;;;;14.30;4.93;;;;;;;;;;5074890;28;20518;-65
2021/12/24 11:45:22;;;;;;;11.87;3.50;;;;;;;;;;5074829;28;20414;-65
2021/12/24 11:47:48;;;;;;;10.67;3.50;;;;;;;;;;5074394;28;20493;-65
2021/12/24 11:50:14;;;;;;;11.97;4.00;;;;;;;;;;5074138;28;20975;-66
2021/12/24 11:52:41;;;;;;;7.90;3.27;;;;;;;;;;5074539;28;20433;-65
2021/12/24 11:55:07;;;;;;;7.73;3.30;;;;;;;;;;5074506;28;20411;-65
2021/12/24 11:57:33;;;;;;;17.63;6.80;;;;;;;;;;5074661;28;20411;-65
2021/12/24 12:00:09;;;;;;;4.63;2.17;;;;;;;;;;5073744;28;20458;-66
2021/12/24 12:02:45;;;;;;;6.00;2.47;;;;;;;;;;5074218;28;20430;-65
2021/12/24 12:05:17;;;;;;;16.10;4.77;;;;;;;;;;5074580;28;20398;-65
2021/12/24 12:07:43;;;;;;;11.13;4.47;;;;;;;;;;5075699;28;20399;-65
2021/12/24 12:10:10;;;;;;;12.60;3.77;;;;;;;;;;5073536;28;20399;-66
2021/12/24 12:12:36;;;;;;;11.50;3.13;;;;;;;;;;5074159;28;20465;-65
2021/12/24 12:15:21;;;;;;;20.03;5.73;;;;;;;;;;5075589;28;20402;-66
2021/12/24 12:17:51;;;;;;;6.37;3.10;;;;;;;;;;5073980;28;20409;-73
2021/12/24 12:20:43;;;;;;;6.97;2.87;;;;;;;;;;5073741;28;20549;-72
2021/12/24 12:23:15;;;;;;;7.70;3.60;;;;;;;;;;5073651;28;20438;-74
2021/12/24 12:25:42;;;;;;;20.10;5.60;;;;;;;;;;5073772;28;20403;-73
2021/12/24 12:28:13;;;;;;;12.17;3.00;;;;;;;;;;5073612;28;20438;-75
2021/12/24 12:30:42;;;;;;;7.03;3.80;;;;;;;;;;5073588;28;20418;-66
2021/12/24 12:33:19;;;;;;;10.80;3.30;;;;;;;;;;5073877;28;20437;-66
2021/12/24 12:35:47;;;;;;;6.00;2.30;;;;;;;;;;5073765;28;20771;-65
2021/12/24 12:38:31;;;;;;;13.63;4.80;;;;;;;;;;5073350;28;20418;-65
2021/12/24 12:41:16;;;;;;;5.93;2.87;;;;;;;;;;5071874;28;20465;-66
2021/12/24 12:43:43;;;;;;;6.33;2.60;;;;;;;;;;5072590;28;20484;-66
2021/12/24 12:46:18;;;;;;;5.57;2.60;;;;;;;;;;5073004;28;20497;-65
2021/12/24 12:48:49;;;;;;;10.90;3.70;;;;;;;;;;5073386;28;20481;-65
2021/12/24 12:51:15;;;;;;;6.80;3.10;;;;;;;;;;5072775;28;20421;-65
2021/12/24 12:53:42;;;;;;;2.40;1.70;;;;;;;;;;5073358;28;20431;-66
2021/12/24 12:56:30;;;;;;;4.73;2.50;;;;;;;;;;5073484;28;20418;-65
2021/12/24 12:58:57;;;;;;;10.93;3.23;;;;;;;;;;5072990;28;20411;-65
2021/12/24 13:01:23;;;;;;;8.73;3.33;;;;;;;;;;5072802;28;20490;-66
2021/12/24 13:03:56;;;;;;;4.50;2.43;;;;;;;;;;5073024;28;20469;-65
2021/12/24 13:06:22;;;;;;;5.57;3.33;;;;;;;;;;5073002;28;20427;-65
2021/12/24 13:08:49;;;;;;;11.20;3.67;;;;;;;;;;5072093;28;20419;-66
2021/12/24 13:11:17;;;;;;;8.30;3.40;;;;;;;;;;5072033;28;20438;-66
2021/12/24 13:13:57;;;;;;;5.73;2.23;;;;;;;;;;5072934;28;20427;-68
2021/12/24 13:16:48;;;;;;;6.73;3.40;;;;;;;;;;5073236;28;20475;-68
2021/12/24 13:25:10;;;;;;;7.07;3.20;;;;;;;;;;5073103;28;20414;-65
2021/12/24 13:27:39;;;;;;;5.37;2.13;;;;;;;;;;5070691;28;20465;-65
2021/12/24 13:30:07;;;;;;;10.70;3.50;;;;;;;;;;5088234;28;20422;-65
2021/12/24 13:32:44;;;;;;;12.40;4.03;;;;;;;;;;5072785;28;20423;-67
2021/12/24 13:35:10;;;;;;;5.57;2.87;;;;;;;;;;5072803;28;20498;-65
2021/12/24 13:37:36;;;;;;;4.20;2.73;;;;;;;;;;5071873;28;20497;-65
2021/12/24 13:40:07;;;;;;;6.60;1.80;;;;;;;;;;5084683;28;20478;-65
2021/12/24 13:42:53;;;;;;;18.77;2.50;;;;;;;;;;5070613;28;20443;-65
2021/12/24 13:45:20;;;;;;;2.27;1.10;;;;;;;;;;5071517;28;20407;-70
2021/12/24 13:54:31;;;;;;;5.03;1.70;;;;;;;;;;5073472;28;20771;-65
2021/12/24 13:55:56;;;;;;;1.77;1.17;;;;;;;;;;5071794;28;20764;-65
2021/12/24 13:58:23;;;;;;;1.57;1.00;;;;;;;;;;5072153;28;20419;-65
2021/12/24 14:00:50;;;;;;;1.73;1.10;;;;;;;;;;5070359;28;20451;-65
2021/12/24 14:03:18;;;;;;;1.50;0.97;;;;;;;;;;5070562;28;20529;-65
2021/12/24 14:05:45;;;;;;;2.13;1.20;;;;;;;;;;5070612;28;20509;-65
2021/12/24 14:08:12;;;;;;;2.83;1.50;;;;;;;;;;5068893;28;20513;-65
2021/12/24 14:10:39;;;;;;;2.20;1.33;;;;;;;;;;5069648;28;20870;-66
2021/12/24 14:13:10;;;;;;;1.80;1.03;;;;;;;;;;5069527;28;20438;-65
2021/12/24 14:15:56;;;;;;;2.20;1.27;;;;;;;;;;5071334;28;20426;-65
2021/12/24 14:18:30;;;;;;;2.10;1.40;;;;;;;;;;5071047;28;20438;-65
2021/12/24 14:21:44;;;;;;;1.50;1.00;;;;;;;;;;5069484;28;21010;-65
2021/12/24 14:23:46;;;;;;;2.17;1.20;;;;;;;;;;5061575;28;20459;-65
2021/12/24 14:26:13;;;;;;;2.33;1.20;;;;;;;;;;5070742;28;20417;-65
2021/12/24 14:28:50;;;;;;;2.53;1.30;;;;;;;;;;5067396;28;20774;-66
2021/12/24 14:31:16;;;;;;;1.70;1.10;;;;;;;;;;5064262;28;20509;-65
2021/12/24 14:33:47;;;;;;;2.23;1.30;;;;;;;;;;5068292;28;20526;-65
2021/12/24 14:36:17;;;;;;;1.50;1.00;;;;;;;;;;5067559;28;20442;-64
2021/12/24 14:38:43;;;;;;;2.00;1.30;;;;;;;;;;5070511;28;20421;-65
2021/12/24 14:41:15;;;;;;;1.80;1.20;;;;;;;;;;5080104;28;20463;-65
2021/12/24 14:43:41;;;;;;;1.30;0.90;;;;;;;;;;5066738;28;20427;-65
2021/12/24 14:46:08;;;;;;;1.40;0.90;;;;;;;;;;5071005;28;20443;-65
2021/12/24 14:48:36;;;;;;;1.43;0.90;;;;;;;;;;5071765;28;20426;-65
2021/12/24 14:51:04;;;;;;;1.60;1.10;;;;;;;;;;5069746;28;20434;-65
2021/12/24 14:53:31;;;;;;;1.40;0.90;;;;;;;;;;5070662;28;20467;-65
2021/12/24 14:56:06;;;;;;;1.60;0.97;;;;;;;;;;5070394;28;20473;-65
2021/12/24 14:58:37;;;;;;;2.30;1.40;;;;;;;;;;5070015;28;20775;-65
2021/12/24 15:01:12;;;;;;;3.77;1.30;;;;;;;;;;5073984;28;20835;-65
2021/12/24 15:03:39;;;;;;;1.53;0.97;;;;;;;;;;5070029;28;20440;-65
2021/12/24 15:06:16;;;;;;;2.13;1.40;;;;;;;;;;5070118;28;20437;-65
2021/12/24 15:08:42;;;;;;;2.33;1.20;;;;;;;;;;5070053;28;20417;-65
2021/12/24 15:11:11;;;;;;;1.60;1.10;;;;;;;;;;5069641;28;20464;-65
2021/12/24 15:13:42;;;;;;;1.20;0.87;;;;;;;;;;5071962;28;20466;-65
2021/12/24 15:16:09;;;;;;;1.90;1.10;;;;;;;;;;5073144;28;20518;-65
2021/12/24 15:18:35;;;;;;;1.90;1.10;;;;;;;;;;5072859;28;20942;-67
2021/12/24 15:21:01;;;;;;;1.97;1.00;;;;;;;;;;5071224;28;20515;-72
2021/12/24 15:23:27;;;;;;;3.23;1.53;;;;;;;;;;5073874;28;20533;-67
2021/12/24 15:25:54;;;;;;;11.03;4.10;;;;;;;;;;5073429;28;20426;-66
2021/12/24 15:28:23;;;;;;;14.63;5.10;;;;;;;;;;5074333;28;20410;-66
2021/12/24 15:30:49;;;;;;;13.47;4.97;;;;;;;;;;5074254;28;20430;-66
2021/12/24 15:33:16;;;;;;;20.93;4.37;;;;;;;;;;5074737;28;20438;-66
2021/12/24 15:35:43;;;;;;;18.87;6.03;;;;;;;;;;5075141;28;20410;-66
2021/12/24 15:38:09;;;;;;;14.17;5.17;;;;;;;;;;5074050;28;20513;-67
2021/12/24 15:40:35;;;;;;;15.97;4.70;;;;;;;;;;5073530;28;20502;-66
2021/12/24 15:43:02;;;;;;;14.80;4.57;;;;;;;;;;5074079;28;20449;-66
2021/12/24 15:45:30;;;;;;;12.43;4.07;;;;;;;;;;5073913;28;20870;-66
2021/12/24 15:47:56;;;;;;;11.87;4.17;;;;;;;;;;5074203;28;20418;-66
2021/12/24 15:50:22;;;;;;;14.43;4.30;;;;;;;;;;5073927;28;20422;-66
2021/12/24 15:52:48;;;;;;;11.30;3.40;;;;;;;;;;5073921;28;20446;-66
2021/12/24 15:55:14;;;;;;;9.53;4.23;;;;;;;;;;5073854;28;20476;-66
2021/12/24 15:57:40;;;;;;;11.83;3.70;;;;;;;;;;5073431;28;20526;-66
2021/12/24 16:00:07;;;;;;;9.07;3.00;;;;;;;;;;5073802;28;20462;-66
2021/12/24 16:02:33;;;;;;;8.57;3.53;;;;;;;;;;5072669;28;21308;-66
2021/12/24 16:04:59;;;;;;;11.83;3.30;;;;;;;;;;5074100;28;20422;-65
2021/12/24 16:07:25;;;;;;;6.27;2.87;;;;;;;;;;5073693;28;20767;-65
2021/12/24 16:09:51;;;;;;;9.60;3.90;;;;;;;;;;5073332;28;20427;-65
2021/12/24 16:12:17;;;;;;;6.47;2.90;;;;;;;;;;5074108;28;20415;-66
2021/12/24 16:14:44;;;;;;;6.83;2.30;;;;;;;;;;5070319;28;20468;-67
2021/12/24 16:17:11;;;;;;;11.90;3.93;;;;;;;;;;5087685;28;20927;-65
2021/12/24 16:19:37;;;;;;;8.70;3.70;;;;;;;;;;5070454;28;20450;-67
2021/12/24 16:22:03;;;;;;;7.63;3.00;;;;;;;;;;5071162;28;20419;-66
2021/12/24 16:24:29;;;;;;;5.73;3.20;;;;;;;;;;5069744;28;20427;-66
2021/12/24 16:26:56;;;;;;;10.37;3.50;;;;;;;;;;5072361;28;20509;-67
2021/12/24 16:29:42;;;;;;;9.10;2.47;;;;;;;;;;5071888;28;20411;-64
2021/12/24 16:32:08;;;;;;;9.13;2.67;;;;;;;;;;5073572;28;20419;-64
2021/12/24 16:34:35;;;;;;;8.33;3.57;;;;;;;;;;5072067;28;20430;-64
2021/12/24 16:37:01;;;;;;;12.90;4.13;;;;;;;;;;5073516;28;20907;-65